ADDS METAR Data INFO
IDs: Format: Raw Decoded Include TAF

Data at: 1523 UTC 18 Jun 2018

PACV 181453Z 08007G18KT 9SM -RA BKN028 OVC075 14/12 A2996 RMK AO2 PK WND 11026/1421 SLP147 P0003 60023 T01390117 58014
PACV 181353Z 09010G19KT 050V110 8SM -RA FEW029 SCT033 OVC075 13/12 A2999 RMK AO2 SLP155 P0008 T01280117
PACV 181253Z 12011G20KT 5SM RA BR OVC035 12/11 A3003 RMK AO2 SLP170 P0012 T01220111
PACV 181153Z VRB06G18KT 10SM -RA SCT029 BKN047 OVC055 12/10 A3001 RMK AO2 SLP161 P0003 60042 70044 T01170100 10122 20106 58024
PACV 181053Z 05012G22KT 7SM RA BKN029 OVC075 11/09 A3001 RMK AO2 PRESFR SLP164 P0010 T01110094
PACV 180953Z 10005KT 6SM RA BR BKN025 BKN037 OVC045 11/11 A3007 RMK AO2 SLP183 P0008 T01060106
PACV 180917Z 10005KT 6SM RA BR BKN026 OVC032 11/11 A3008 RMK AO2 P0004 T01110106
PACV 180853Z 12006G15KT 6SM -RA BR OVC035 11/11 A3008 RMK AO2 SLP185 P0011 60021 T01110106 401440100 53010
PACV 180753Z 11004KT 7SM -RA OVC034 11/10 A3004 RMK AO2 SLP173 P0004 T01110100
PACV 180653Z 09010G18KT 7SM RA SCT030 BKN038 OVC075 12/10 A3004 RMK AO2 SLP173 P0006 T01170100
PACV 180553Z 08008KT 10SM -RA FEW017 BKN035 OVC060 12/10 A3005 RMK AO2 SLP175 P0001 60001 T01170100 10144 20117 58006
PACV 180453Z 12009KT 10SM -RA FEW011 OVC033 13/09 A3005 RMK AO2 RAB52 SLP177 P0000 T01330094
PACV 180353Z 13007KT 10SM FEW027 OVC033 13/09 A3006 RMK AO2 SLP181 T01330089
PACV 180253Z 11007KT 10SM FEW028 OVC040 14/09 A3006 RMK AO2 SLP181 T01390089 56009
PACV 180153Z 08008KT 10SM BKN031 OVC045 14/09 A3008 RMK AO2 SLP185 T01390094
PACV 180107Z 08005KT 10SM FEW016 SCT024 OVC035 14/09 A3008 RMK AO2 T01390094
PACV 180053Z VRB04KT 10SM FEW016 BKN026 OVC035 14/10 A3008 RMK AO2 SLP186 T01390100
PACV 180044Z 13006KT 10SM BKN026 OVC035 14/10 A3008 RMK AO2 T01390100
PACV 172353Z VRB06KT 10SM FEW008 BKN030 OVC047 14/09 A3009 RMK AO2 SLP191 T01440094 10144 20111 55003
PACV 172253Z 05008KT 10SM FEW010 BKN034 OVC047 14/09 A3009 RMK AO2 SLP189 T01390094
PACV 172153Z 12008KT 10SM FEW010 BKN036 OVC065 14/10 A3011 RMK AO2 SLP195 T01390100
PACV 172053Z 13007KT 10SM FEW014 BKN045 OVC065 14/09 A3010 RMK AO2 SLP194 T01440094 53006
PACV 171953Z VRB04KT 10SM SCT015 BKN047 OVC065 14/09 A3009 RMK AO2 SLP191 T01390094
PACV 171853Z 00000KT 10SM SCT020 BKN047 OVC060 13/10 A3008 RMK AO2 SLP186 T01280100
PACV 171753Z 00000KT 10SM SCT015 BKN047 OVC060 12/11 A3008 RMK AO2 SLP188 60001 T01170106 10117 20100 55000
PACV 171653Z 07003KT 10SM SCT010 BKN045 OVC060 11/09 A3008 RMK AO2 SLP185 T01110094
PACV 171600Z 00000KT 10SM SCT015 BKN035 OVC060 10/09 A3008 RMK AO2 T01000094
PACV 171553Z 00000KT 10SM FEW008 BKN029 OVC062 10/09 A3008 RMK AO2 SLP185 T01000089
PACV 171519Z 10004KT 10SM FEW008 BKN016 OVC062 11/11 A3008 RMK AO2 T01060106
PACV 171509Z 14004KT 10SM SCT010 OVC016 10/10 A3008 RMK AO2 T01000100
PACV 171453Z 14004KT 10SM SCT003 BKN009 OVC014 10/10 A3008 RMK AO2 SLP187 60001 T01000100 51006
PACV 171445Z 14005KT 9SM BKN005 OVC009 10/10 A3008 RMK AO2 CIG 002V006 T01000100
PACV 171432Z 13008KT 3SM BR OVC003 10/10 A3008 RMK AO2 T01000100
PACV 171353Z 13009KT 1 3/4SM BR OVC004 10/10 A3008 RMK AO2 RAB40E52 SLP186 P0000 T01000100
PACV 171332Z 14009KT 1 3/4SM BR OVC004 10/10 A3008 RMK AO2 T01000100
PACV 171321Z 13008KT 2SM BR OVC004 10/10 A3007 RMK AO2 T01000100
PACV 171258Z 14006KT 1 3/4SM BR BKN007 OVC012 10/10 A3007 RMK AO2 T01000100
PACV 171253Z 14007KT 2 1/2SM BR SCT007 OVC012 10/10 A3008 RMK AO2 RAE1154 SLP185 P0001 T01000100
PACV 171251Z 14007KT 2 1/2SM BR SCT007 OVC014 10/10 A3008 RMK AO2 RAE1154 P0001
PACV 171242Z 15007KT 3SM BR FEW004 OVC012 10/10 A3007 RMK AO2 RAE1154 P0001 T01000100
PACV 171234Z 14008KT 3SM BR SCT004 SCT009 OVC015 10/10 A3007 RMK AO2 RAE1154 P0001 T01000100
PACV 171226Z 14007KT 3SM BR BKN004 BKN009 OVC013 10/10 A3007 RMK AO2 RAE1154 P0001 T01000100
PACV 171218Z 15008KT 2 1/2SM BR BKN004 OVC011 10/10 A3007 RMK AO2 RAE1154 P0000 T01000100
PACV 171153Z 14007KT 10SM -RA SCT007 BKN011 OVC017 10/10 A3007 RMK AO2 RAE28B45 SLP181 P0000 60028 70063 T01000100 10106 20100 53011
PACV 171053Z 11009KT 6SM RA BR SCT007 BKN011 OVC017 10/10 A3004 RMK AO2 RAE25B39 SLP174 P0003 T01000100
PACV 171036Z 12006KT 10SM SCT007 BKN011 OVC016 10/10 A3005 RMK AO2 RAE25 P0001 T01000100
PACV 170953Z 14005KT 3SM -RA BR OVC011 10/10 A3004 RMK AO2 RAB21 SLP173 P0003 T01000100
PACV 170900Z 12007KT 10SM OVC012 11/10 A3003 RMK AO2 T01060100
PACV 170853Z 12008KT 10SM BKN015 OVC023 11/10 A3003 RMK AO2 RAE04 SLP170 P0000 60022 T01060100 401330094 53008
PACV 170753Z 13005KT 4SM -RA BR SCT012 BKN023 OVC034 10/10 A3002 RMK AO2 SLP167 P0004 T01000100
PACV 170743Z 11007KT 6SM -RA BR FEW012 BKN024 OVC041 11/11 A3002 RMK AO2 P0003 T01060106
PACV 170719Z 10006KT 5SM -RA BR SCT014 BKN031 OVC050 11/11 A3001 RMK AO2 P0002 T01060106
PACV 170709Z 08007KT 3SM RA BR SCT014 BKN027 OVC050 11/11 A3001 RMK AO2 P0002 T01060106
PACV 170653Z 10007KT 6SM -RA BR FEW009 OVC031 11/11 A3001 RMK AO2 SLP163 P0018 T01060106
PACV 170651Z 11006KT 6SM -RA BR FEW009 SCT024 OVC031 10/10 A3001 RMK AO2 P0017
PACV 170624Z 12006KT 3SM RA BR FEW006 BKN014 OVC024 11/11 A3001 RMK AO2 P0014 T01060106
PACV 170612Z 13005KT 2SM +RA BR SCT008 OVC013 11/11 A3001 RMK AO2 P0009 T01060106
PACV 170606Z 13008KT 1 1/2SM +RA BR OVC008 11/11 A3000 RMK AO2 P0007 T01060106
PACV 170555Z 15007KT 2SM RA BR BKN007 OVC014 11/11 A3000 RMK AO2 P0001 T01060106
PACV 170553Z 14008KT 2SM RA BR BKN010 OVC014 11/11 A3000 RMK AO2 SLP160 P0010 60032 T01060106 10117 20106 53007
PACV 170547Z 13004KT 2SM -RA BR BKN009 OVC013 11/11 A3000 RMK AO2 P0009
PACV 170526Z 12006KT 2SM -RA BR BKN013 OVC018 11/11 A3000 RMK AO2 P0005 T01060106
PACV 170521Z 13007KT 1 1/2SM +RA BR FEW010 OVC015 11/11 A3000 RMK AO2 P0005 T01060106
PACV 170513Z 12007KT 2 1/2SM -RA BR BKN012 OVC019 11/11 A3000 RMK AO2 P0002 T01060106
PACV 170453Z 13006KT 1 1/2SM -RA BR BKN012 OVC019 11/11 A2999 RMK AO2 SLP157 P0007 T01060106
PACV 170445Z 11006KT 1 1/4SM RA BR BKN012 OVC018 11/11 A2999 RMK AO2 P0006 T01060106
PACV 170412Z 13006KT 1 3/4SM -RA BR FEW009 BKN016 OVC022 11/11 A2999 RMK AO2 P0002 T01060106
PACV 170353Z 12005KT 1 1/2SM -RA BR FEW010 OVC016 11/11 A2999 RMK AO2 SLP156 P0006 T01060106